KBRO/BRO METAR and TAF weather

Enter ICAO airport designator
Station Type Date Time Source
KBRO METAR 2021/09/16 09:53 UTC NOAA

KBRO 160953Z AUTO 28003KT 10SM CLR 25/23 A2981 RMK AO2 SLP094 T02500228 $


Station Type Date Time Source
KBRO Decoded METAR 2021/09/16 09:53 UTC NOAA

BROWNSVILLE/SOUTH PADRE IS, TX, United States (KBRO) 25-54N 97-25W 5M
Sep 16, 2021 - 05:53 AM EDT / 2021.09.16 0953 UTC
Wind: from the W (280 degrees) at 3 MPH (3 KT):0
Visibility: 10 mile(s):0
Sky conditions: clear
Temperature: 77.0 F (25.0 C)
Dew Point: 73.0 F (22.8 C)
Relative Humidity: 87%
Pressure (altimeter): 29.81 in. Hg (1009 hPa)
ob: KBRO 160953Z AUTO 28003KT 10SM CLR 25/23 A2981 RMK AO2 SLP094 T02500228
cycle: 10

Station Type Date Time Source
KBRO TAF 2021/09/16 06:22 UTC NOAA

TAF KBRO 160520Z 1606/1706 VRB03KT P6SM SCT040 BKN050
FM161800 09010G18KT P6SM SCT100
FM170000 11005KT P6SM OVC250

Example: see airport list